메인 페이지
METAR-TAF:

METAR-TAF

공항 :

서 시우사구르 람굴람 국제공항

모리셔스, 모리셔스

위도: 20-26S, 경도: 057-40E, 고도: 55m

현재 날씨관측

예보는 49분 전, 09:00시(UTC)에 발표되었습니다.
13kt
온도 26°C
습도 61%
기압 1019 hPa
시정 10km 이상
고도 1800ft 상공 구름 보통

METAR: FIMP 150900Z 09013KT 9999 SCT018 26/18 Q1019

시각: 13:49 (09:49 UTC)

예보

예보는 4 시간 39분 전, 05:10시(UTC)에 발표되었습니다.
예보 대상 시간: 15일 06시부터 16일 12시까지 (UTC)
8kt
시정 10km 이상
고도 1600ft 상공 구름 보통
전환 중
15일 18시부터 15일 20시까지 (UTC)
여러 방향의 바람 3kt

TAF: FIMP 150510Z 1506/1612 10008KT 9999 SCT016 BECMG 1518/1520 VRB03KT

4,000개 이상의 공항 관측 자료 및 예보 (METAR 및 TAF 보고).

지도상에서 검색 가능한 기상관측소가 노란 점과 빨간 점으로 표시되어 있습니다.

기상관측소 명을 보려면 표시 위로 마우스를 이동하세요.

날씨 관측과 예보를 보려면 클릭하세요.

지도 변경 : 확대하려면 엑스 표시가 있는 녹색 버튼, 축소하려면 빼기 표시가 있는 녹색 버튼, 다음 페이지의 지도를 보려면 녹색 화살표를 클릭하세요.


METAR-TAF: